sensor_id;sensor_type;location;lat;lon;timestamp;P1;durP1;ratioP1;P2;durP2;ratioP2
23718;SDS011;43322;52.230;5.702;2022-07-25T00:02:26;4.30;;;4.00;;
23718;SDS011;43322;52.230;5.702;2022-07-25T00:04:54;4.05;;;3.75;;
23718;SDS011;43322;52.230;5.702;2022-07-25T00:07:22;3.88;;;3.67;;
23718;SDS011;43322;52.230;5.702;2022-07-25T00:09:50;4.13;;;3.78;;
23718;SDS011;43322;52.230;5.702;2022-07-25T00:12:16;4.72;;;4.30;;
23718;SDS011;43322;52.230;5.702;2022-07-25T00:14:44;4.30;;;4.00;;
23718;SDS011;43322;52.230;5.702;2022-07-25T00:17:11;4.65;;;4.25;;
23718;SDS011;43322;52.230;5.702;2022-07-25T00:19:37;4.75;;;4.43;;
23718;SDS011;43322;52.230;5.702;2022-07-25T00:22:05;4.70;;;4.07;;
23718;SDS011;43322;52.230;5.702;2022-07-25T00:24:32;4.40;;;4.00;;
23718;SDS011;43322;52.230;5.702;2022-07-25T00:27:00;4.32;;;4.07;;
23718;SDS011;43322;52.230;5.702;2022-07-25T00:29:27;4.47;;;4.18;;
23718;SDS011;43322;52.230;5.702;2022-07-25T00:31:54;5.53;;;4.30;;
23718;SDS011;43322;52.230;5.702;2022-07-25T00:34:21;4.43;;;4.13;;
23718;SDS011;43322;52.230;5.702;2022-07-25T00:36:48;5.63;;;3.83;;
23718;SDS011;43322;52.230;5.702;2022-07-25T00:39:15;4.05;;;3.80;;
23718;SDS011;43322;52.230;5.702;2022-07-25T00:41:42;4.70;;;4.30;;
23718;SDS011;43322;52.230;5.702;2022-07-25T00:44:11;4.85;;;4.40;;
23718;SDS011;43322;52.230;5.702;2022-07-25T00:46:47;4.88;;;4.57;;
23718;SDS011;43322;52.230;5.702;2022-07-25T00:49:14;4.78;;;4.40;;
23718;SDS011;43322;52.230;5.702;2022-07-25T00:51:41;4.38;;;4.03;;
23718;SDS011;43322;52.230;5.702;2022-07-25T00:54:08;4.90;;;4.55;;
23718;SDS011;43322;52.230;5.702;2022-07-25T00:56:35;5.07;;;4.65;;
23718;SDS011;43322;52.230;5.702;2022-07-25T00:59:02;4.82;;;4.53;;
23718;SDS011;43322;52.230;5.702;2022-07-25T01:01:31;4.57;;;4.30;;
23718;SDS011;43322;52.230;5.702;2022-07-25T01:03:58;5.32;;;4.93;;
23718;SDS011;43322;52.230;5.702;2022-07-25T01:06:25;4.97;;;4.50;;
23718;SDS011;43322;52.230;5.702;2022-07-25T01:08:53;5.45;;;4.95;;
23718;SDS011;43322;52.230;5.702;2022-07-25T01:11:21;4.53;;;4.07;;
23718;SDS011;43322;52.230;5.702;2022-07-25T01:13:48;4.97;;;4.68;;
23718;SDS011;43322;52.230;5.702;2022-07-25T01:16:15;5.40;;;4.90;;
23718;SDS011;43322;52.230;5.702;2022-07-25T01:18:44;4.88;;;4.57;;
23718;SDS011;43322;52.230;5.702;2022-07-25T01:21:12;4.55;;;4.32;;
23718;SDS011;43322;52.230;5.702;2022-07-25T01:23:39;5.43;;;5.10;;
23718;SDS011;43322;52.230;5.702;2022-07-25T01:26:07;6.57;;;4.80;;
23718;SDS011;43322;52.230;5.702;2022-07-25T01:28:34;6.05;;;5.13;;
23718;SDS011;43322;52.230;5.702;2022-07-25T01:31:01;5.82;;;4.60;;
23718;SDS011;43322;52.230;5.702;2022-07-25T01:33:27;5.25;;;4.85;;
23718;SDS011;43322;52.230;5.702;2022-07-25T01:35:54;4.57;;;4.32;;
23718;SDS011;43322;52.230;5.702;2022-07-25T01:38:22;5.55;;;5.20;;
23718;SDS011;43322;52.230;5.702;2022-07-25T01:40:49;5.20;;;4.90;;
23718;SDS011;43322;52.230;5.702;2022-07-25T01:43:16;5.07;;;4.78;;
23718;SDS011;43322;52.230;5.702;2022-07-25T01:45:43;5.50;;;5.13;;
23718;SDS011;43322;52.230;5.702;2022-07-25T01:48:10;5.60;;;5.30;;
23718;SDS011;43322;52.230;5.702;2022-07-25T01:50:37;5.97;;;5.50;;
23718;SDS011;43322;52.230;5.702;2022-07-25T01:53:03;5.80;;;5.30;;
23718;SDS011;43322;52.230;5.702;2022-07-25T01:55:32;5.47;;;5.18;;
23718;SDS011;43322;52.230;5.702;2022-07-25T01:57:59;5.60;;;5.20;;
23718;SDS011;43322;52.230;5.702;2022-07-25T02:00:26;5.57;;;5.28;;
23718;SDS011;43322;52.230;5.702;2022-07-25T02:02:52;6.00;;;5.60;;
23718;SDS011;43322;52.230;5.702;2022-07-25T02:05:33;5.88;;;5.43;;
23718;SDS011;43322;52.230;5.702;2022-07-25T02:08:00;6.00;;;5.57;;
23718;SDS011;43322;52.230;5.702;2022-07-25T02:10:27;5.57;;;5.28;;
23718;SDS011;43322;52.230;5.702;2022-07-25T02:12:55;5.80;;;5.40;;
23718;SDS011;43322;52.230;5.702;2022-07-25T02:15:22;5.65;;;5.28;;
23718;SDS011;43322;52.230;5.702;2022-07-25T02:17:49;5.90;;;5.50;;
23718;SDS011;43322;52.230;5.702;2022-07-25T02:20:15;6.70;;;6.20;;
23718;SDS011;43322;52.230;5.702;2022-07-25T02:22:42;6.38;;;5.97;;
23718;SDS011;43322;52.230;5.702;2022-07-25T02:25:09;5.78;;;5.47;;
23718;SDS011;43322;52.230;5.702;2022-07-25T02:27:36;6.10;;;5.70;;
23718;SDS011;43322;52.230;5.702;2022-07-25T02:30:05;5.63;;;5.32;;
23718;SDS011;43322;52.230;5.702;2022-07-25T02:32:33;6.60;;;6.10;;
23718;SDS011;43322;52.230;5.702;2022-07-25T02:35:00;5.95;;;5.55;;
23718;SDS011;43322;52.230;5.702;2022-07-25T02:37:27;6.07;;;5.72;;
23718;SDS011;43322;52.230;5.702;2022-07-25T02:39:54;5.88;;;5.38;;
23718;SDS011;43322;52.230;5.702;2022-07-25T02:42:21;5.88;;;5.57;;
23718;SDS011;43322;52.230;5.702;2022-07-25T02:44:48;6.28;;;5.97;;
23718;SDS011;43322;52.230;5.702;2022-07-25T02:47:16;5.78;;;5.47;;
23718;SDS011;43322;52.230;5.702;2022-07-25T02:49:43;6.55;;;6.05;;
23718;SDS011;43322;52.230;5.702;2022-07-25T02:52:10;6.40;;;6.00;;
23718;SDS011;43322;52.230;5.702;2022-07-25T02:54:37;6.55;;;6.15;;
23718;SDS011;43322;52.230;5.702;2022-07-25T02:57:04;6.60;;;6.13;;
23718;SDS011;43322;52.230;5.702;2022-07-25T02:59:30;6.30;;;5.88;;
23718;SDS011;43322;52.230;5.702;2022-07-25T03:01:57;6.20;;;5.80;;
23718;SDS011;43322;52.230;5.702;2022-07-25T03:04:25;6.05;;;5.63;;
23718;SDS011;43322;52.230;5.702;2022-07-25T03:06:52;6.68;;;6.18;;
23718;SDS011;43322;52.230;5.702;2022-07-25T03:09:19;6.78;;;6.18;;
23718;SDS011;43322;52.230;5.702;2022-07-25T03:11:46;6.65;;;6.05;;
23718;SDS011;43322;52.230;5.702;2022-07-25T03:14:14;7.40;;;6.90;;
23718;SDS011;43322;52.230;5.702;2022-07-25T03:16:41;6.75;;;6.25;;
23718;SDS011;43322;52.230;5.702;2022-07-25T03:19:07;6.80;;;6.30;;
23718;SDS011;43322;52.230;5.702;2022-07-25T03:21:38;6.93;;;6.18;;
23718;SDS011;43322;52.230;5.702;2022-07-25T03:24:05;7.38;;;6.82;;
23718;SDS011;43322;52.230;5.702;2022-07-25T03:26:32;7.10;;;6.47;;
23718;SDS011;43322;52.230;5.702;2022-07-25T03:28:59;8.20;;;7.40;;
23718;SDS011;43322;52.230;5.702;2022-07-25T03:31:26;7.88;;;7.18;;
23718;SDS011;43322;52.230;5.702;2022-07-25T03:33:53;8.02;;;7.25;;
23718;SDS011;43322;52.230;5.702;2022-07-25T03:36:20;8.27;;;7.47;;
23718;SDS011;43322;52.230;5.702;2022-07-25T03:38:49;7.03;;;6.60;;
23718;SDS011;43322;52.230;5.702;2022-07-25T03:41:15;7.25;;;6.65;;
23718;SDS011;43322;52.230;5.702;2022-07-25T03:43:43;8.00;;;7.40;;
23718;SDS011;43322;52.230;5.702;2022-07-25T03:46:10;7.97;;;7.30;;
23718;SDS011;43322;52.230;5.702;2022-07-25T03:48:37;8.20;;;7.68;;
23718;SDS011;43322;52.230;5.702;2022-07-25T03:51:04;9.18;;;8.48;;
23718;SDS011;43322;52.230;5.702;2022-07-25T03:53:31;9.38;;;8.60;;
23718;SDS011;43322;52.230;5.702;2022-07-25T03:56:20;9.55;;;8.73;;
23718;SDS011;43322;52.230;5.702;2022-07-25T03:58:47;8.70;;;8.00;;
23718;SDS011;43322;52.230;5.702;2022-07-25T04:01:14;8.95;;;8.25;;
23718;SDS011;43322;52.230;5.702;2022-07-25T04:03:41;8.35;;;7.75;;
23718;SDS011;43322;52.230;5.702;2022-07-25T04:06:08;8.90;;;8.00;;
23718;SDS011;43322;52.230;5.702;2022-07-25T04:08:34;8.63;;;7.90;;
23718;SDS011;43322;52.230;5.702;2022-07-25T04:11:01;8.57;;;7.82;;
23718;SDS011;43322;52.230;5.702;2022-07-25T04:13:30;8.75;;;8.05;;
23718;SDS011;43322;52.230;5.702;2022-07-25T04:15:57;9.15;;;8.38;;
23718;SDS011;43322;52.230;5.702;2022-07-25T04:18:24;8.85;;;8.13;;
23718;SDS011;43322;52.230;5.702;2022-07-25T04:20:51;10.48;;;9.45;;
23718;SDS011;43322;52.230;5.702;2022-07-25T04:23:17;9.27;;;8.45;;
23718;SDS011;43322;52.230;5.702;2022-07-25T04:25:44;9.10;;;8.40;;
23718;SDS011;43322;52.230;5.702;2022-07-25T04:28:11;9.70;;;8.88;;
23718;SDS011;43322;52.230;5.702;2022-07-25T04:30:39;10.40;;;9.40;;
23718;SDS011;43322;52.230;5.702;2022-07-25T04:33:09;9.18;;;8.30;;
23718;SDS011;43322;52.230;5.702;2022-07-25T04:35:36;8.57;;;7.97;;
23718;SDS011;43322;52.230;5.702;2022-07-25T04:38:03;10.00;;;9.20;;
23718;SDS011;43322;52.230;5.702;2022-07-25T04:40:30;8.45;;;7.75;;
23718;SDS011;43322;52.230;5.702;2022-07-25T04:42:57;8.52;;;7.72;;
23718;SDS011;43322;52.230;5.702;2022-07-25T04:45:24;9.23;;;8.63;;
23718;SDS011;43322;52.230;5.702;2022-07-25T04:47:52;8.73;;;8.05;;
23718;SDS011;43322;52.230;5.702;2022-07-25T04:50:19;8.60;;;7.90;;
23718;SDS011;43322;52.230;5.702;2022-07-25T04:52:46;9.02;;;8.20;;
23718;SDS011;43322;52.230;5.702;2022-07-25T04:55:14;9.73;;;8.75;;
23718;SDS011;43322;52.230;5.702;2022-07-25T04:57:41;8.98;;;8.20;;
23718;SDS011;43322;52.230;5.702;2022-07-25T05:00:09;9.30;;;8.50;;
23718;SDS011;43322;52.230;5.702;2022-07-25T05:02:37;8.80;;;8.10;;
23718;SDS011;43322;52.230;5.702;2022-07-25T05:05:07;8.93;;;8.02;;
23718;SDS011;43322;52.230;5.702;2022-07-25T05:07:34;8.25;;;7.72;;
23718;SDS011;43322;52.230;5.702;2022-07-25T05:10:02;8.52;;;7.68;;
23718;SDS011;43322;52.230;5.702;2022-07-25T05:12:30;9.85;;;8.90;;
23718;SDS011;43322;52.230;5.702;2022-07-25T05:14:57;10.13;;;9.18;;
23718;SDS011;43322;52.230;5.702;2022-07-25T05:17:23;9.15;;;8.32;;
23718;SDS011;43322;52.230;5.702;2022-07-25T05:19:50;11.20;;;9.52;;
23718;SDS011;43322;52.230;5.702;2022-07-25T05:22:18;11.40;;;9.77;;
23718;SDS011;43322;52.230;5.702;2022-07-25T05:24:45;11.30;;;10.23;;
23718;SDS011;43322;52.230;5.702;2022-07-25T05:27:12;9.77;;;8.98;;
23718;SDS011;43322;52.230;5.702;2022-07-25T05:29:39;10.57;;;9.57;;
23718;SDS011;43322;52.230;5.702;2022-07-25T05:32:06;9.73;;;8.93;;
23718;SDS011;43322;52.230;5.702;2022-07-25T05:34:33;10.98;;;9.38;;
23718;SDS011;43322;52.230;5.702;2022-07-25T05:37:00;11.93;;;10.82;;
23718;SDS011;43322;52.230;5.702;2022-07-25T05:39:29;10.77;;;9.68;;
23718;SDS011;43322;52.230;5.702;2022-07-25T05:41:55;10.48;;;9.63;;
23718;SDS011;43322;52.230;5.702;2022-07-25T05:44:22;13.48;;;10.65;;
23718;SDS011;43322;52.230;5.702;2022-07-25T05:46:49;11.18;;;10.18;;
23718;SDS011;43322;52.230;5.702;2022-07-25T05:49:16;10.45;;;9.57;;
23718;SDS011;43322;52.230;5.702;2022-07-25T05:51:43;11.85;;;10.63;;
23718;SDS011;43322;52.230;5.702;2022-07-25T05:54:09;11.18;;;9.98;;
23718;SDS011;43322;52.230;5.702;2022-07-25T05:56:38;12.73;;;11.18;;
23718;SDS011;43322;52.230;5.702;2022-07-25T05:59:04;12.75;;;11.57;;
23718;SDS011;43322;52.230;5.702;2022-07-25T06:01:31;12.25;;;11.05;;
23718;SDS011;43322;52.230;5.702;2022-07-25T06:03:58;12.27;;;10.52;;
23718;SDS011;43322;52.230;5.702;2022-07-25T06:06:25;11.88;;;10.73;;
23718;SDS011;43322;52.230;5.702;2022-07-25T06:08:51;13.38;;;10.57;;
23718;SDS011;43322;52.230;5.702;2022-07-25T06:11:18;12.77;;;10.05;;
23718;SDS011;43322;52.230;5.702;2022-07-25T06:13:46;16.00;;;11.68;;
23718;SDS011;43322;52.230;5.702;2022-07-25T06:16:13;10.80;;;9.80;;
23718;SDS011;43322;52.230;5.702;2022-07-25T06:18:40;14.93;;;10.73;;
23718;SDS011;43322;52.230;5.702;2022-07-25T06:21:07;13.57;;;10.35;;
23718;SDS011;43322;52.230;5.702;2022-07-25T06:23:33;10.45;;;9.57;;
23718;SDS011;43322;52.230;5.702;2022-07-25T06:26:00;10.90;;;9.80;;
23718;SDS011;43322;52.230;5.702;2022-07-25T06:28:27;11.55;;;9.82;;
23718;SDS011;43322;52.230;5.702;2022-07-25T06:30:55;11.77;;;10.73;;
23718;SDS011;43322;52.230;5.702;2022-07-25T06:33:22;11.68;;;10.43;;
23718;SDS011;43322;52.230;5.702;2022-07-25T06:35:48;11.65;;;10.38;;
23718;SDS011;43322;52.230;5.702;2022-07-25T06:38:15;11.10;;;9.80;;
23718;SDS011;43322;52.230;5.702;2022-07-25T06:40:42;11.98;;;10.82;;
23718;SDS011;43322;52.230;5.702;2022-07-25T06:43:09;12.40;;;10.98;;
23718;SDS011;43322;52.230;5.702;2022-07-25T06:45:36;12.50;;;10.45;;
23718;SDS011;43322;52.230;5.702;2022-07-25T06:48:05;11.52;;;10.13;;
23718;SDS011;43322;52.230;5.702;2022-07-25T06:50:31;11.38;;;10.27;;
23718;SDS011;43322;52.230;5.702;2022-07-25T06:52:58;10.77;;;9.68;;
23718;SDS011;43322;52.230;5.702;2022-07-25T06:55:25;11.13;;;9.45;;
23718;SDS011;43322;52.230;5.702;2022-07-25T06:57:52;10.45;;;9.50;;
23718;SDS011;43322;52.230;5.702;2022-07-25T07:00:19;11.02;;;9.80;;
23718;SDS011;43322;52.230;5.702;2022-07-25T07:02:46;9.55;;;8.68;;
23718;SDS011;43322;52.230;5.702;2022-07-25T07:05:19;10.30;;;9.50;;
23718;SDS011;43322;52.230;5.702;2022-07-25T07:07:46;9.75;;;8.90;;
23718;SDS011;43322;52.230;5.702;2022-07-25T07:10:13;8.70;;;7.88;;
23718;SDS011;43322;52.230;5.702;2022-07-25T07:12:40;8.77;;;7.97;;
23718;SDS011;43322;52.230;5.702;2022-07-25T07:15:08;7.65;;;6.95;;
23718;SDS011;43322;52.230;5.702;2022-07-25T07:17:35;7.05;;;6.53;;
23718;SDS011;43322;52.230;5.702;2022-07-25T07:20:03;7.28;;;6.30;;
23718;SDS011;43322;52.230;5.702;2022-07-25T07:22:34;6.55;;;6.05;;
23718;SDS011;43322;52.230;5.702;2022-07-25T07:25:08;7.55;;;6.95;;
23718;SDS011;43322;52.230;5.702;2022-07-25T07:27:35;7.90;;;7.20;;
23718;SDS011;43322;52.230;5.702;2022-07-25T07:30:02;5.78;;;5.38;;
23718;SDS011;43322;52.230;5.702;2022-07-25T07:32:30;4.75;;;4.47;;
23718;SDS011;43322;52.230;5.702;2022-07-25T07:34:56;4.97;;;4.45;;
23718;SDS011;43322;52.230;5.702;2022-07-25T07:37:23;4.97;;;4.68;;
23718;SDS011;43322;52.230;5.702;2022-07-25T07:39:52;5.25;;;4.85;;
23718;SDS011;43322;52.230;5.702;2022-07-25T07:42:18;4.70;;;4.38;;
23718;SDS011;43322;52.230;5.702;2022-07-25T07:44:45;5.35;;;4.95;;
23718;SDS011;43322;52.230;5.702;2022-07-25T07:47:12;5.32;;;4.90;;
23718;SDS011;43322;52.230;5.702;2022-07-25T07:49:39;4.55;;;4.25;;
23718;SDS011;43322;52.230;5.702;2022-07-25T07:52:06;4.15;;;3.85;;
23718;SDS011;43322;52.230;5.702;2022-07-25T07:54:33;4.55;;;4.25;;
23718;SDS011;43322;52.230;5.702;2022-07-25T07:57:19;4.60;;;3.95;;
23718;SDS011;43322;52.230;5.702;2022-07-25T07:59:45;3.95;;;3.75;;
23718;SDS011;43322;52.230;5.702;2022-07-25T08:02:12;4.13;;;3.70;;
23718;SDS011;43322;52.230;5.702;2022-07-25T08:04:40;3.90;;;3.60;;
23718;SDS011;43322;52.230;5.702;2022-07-25T08:07:07;3.22;;;3.03;;
23718;SDS011;43322;52.230;5.702;2022-07-25T08:09:33;3.33;;;3.13;;
23718;SDS011;43322;52.230;5.702;2022-07-25T08:12:00;2.92;;;2.70;;
23718;SDS011;43322;52.230;5.702;2022-07-25T08:14:29;2.25;;;2.13;;
23718;SDS011;43322;52.230;5.702;2022-07-25T08:16:57;2.38;;;2.28;;
23718;SDS011;43322;52.230;5.702;2022-07-25T08:19:24;2.30;;;2.10;;
23718;SDS011;43322;52.230;5.702;2022-07-25T08:21:50;1.83;;;1.73;;
23718;SDS011;43322;52.230;5.702;2022-07-25T08:24:17;2.45;;;1.65;;
23718;SDS011;43322;52.230;5.702;2022-07-25T08:26:44;1.88;;;1.60;;
23718;SDS011;43322;52.230;5.702;2022-07-25T08:29:11;1.92;;;1.73;;
23718;SDS011;43322;52.230;5.702;2022-07-25T08:31:39;1.52;;;1.42;;
23718;SDS011;43322;52.230;5.702;2022-07-25T08:34:06;2.28;;;1.73;;
23718;SDS011;43322;52.230;5.702;2022-07-25T08:36:33;1.52;;;1.42;;
23718;SDS011;43322;52.230;5.702;2022-07-25T08:39:00;1.80;;;1.70;;
23718;SDS011;43322;52.230;5.702;2022-07-25T08:41:27;1.70;;;1.60;;
23718;SDS011;43322;52.230;5.702;2022-07-25T08:43:54;1.60;;;1.40;;
23718;SDS011;43322;52.230;5.702;2022-07-25T08:46:21;1.85;;;1.30;;
23718;SDS011;43322;52.230;5.702;2022-07-25T08:48:50;1.70;;;1.60;;
23718;SDS011;43322;52.230;5.702;2022-07-25T08:51:17;1.60;;;1.50;;
23718;SDS011;43322;52.230;5.702;2022-07-25T08:53:44;3.25;;;1.30;;
23718;SDS011;43322;52.230;5.702;2022-07-25T08:56:12;1.67;;;1.45;;
23718;SDS011;43322;52.230;5.702;2022-07-25T08:58:39;1.85;;;1.42;;
23718;SDS011;43322;52.230;5.702;2022-07-25T09:01:06;1.20;;;1.20;;
23718;SDS011;43322;52.230;5.702;2022-07-25T09:03:33;1.67;;;1.58;;
23718;SDS011;43322;52.230;5.702;2022-07-25T09:06:02;1.52;;;1.30;;
23718;SDS011;43322;52.230;5.702;2022-07-25T09:08:48;1.60;;;1.40;;
23718;SDS011;43322;52.230;5.702;2022-07-25T09:11:29;2.05;;;1.63;;
23718;SDS011;43322;52.230;5.702;2022-07-25T09:13:58;1.60;;;1.50;;
23718;SDS011;43322;52.230;5.702;2022-07-25T09:16:29;1.42;;;1.33;;
23718;SDS011;43322;52.230;5.702;2022-07-25T09:19:06;1.13;;;1.10;;
23718;SDS011;43322;52.230;5.702;2022-07-25T09:21:37;1.20;;;1.13;;
23718;SDS011;43322;52.230;5.702;2022-07-25T09:24:09;10.25;;;1.35;;
23718;SDS011;43322;52.230;5.702;2022-07-25T09:26:44;0.90;;;0.90;;
23718;SDS011;43322;52.230;5.702;2022-07-25T09:29:16;0.90;;;0.90;;
23718;SDS011;43322;52.230;5.702;2022-07-25T09:31:44;0.88;;;0.88;;
23718;SDS011;43322;52.230;5.702;2022-07-25T09:34:11;1.10;;;1.10;;
23718;SDS011;43322;52.230;5.702;2022-07-25T09:36:50;1.20;;;1.20;;
23718;SDS011;43322;52.230;5.702;2022-07-25T09:39:18;1.05;;;0.95;;
23718;SDS011;43322;52.230;5.702;2022-07-25T09:41:45;1.05;;;0.98;;
23718;SDS011;43322;52.230;5.702;2022-07-25T09:44:16;2.75;;;1.08;;
23718;SDS011;43322;52.230;5.702;2022-07-25T09:46:47;2.88;;;1.20;;
23718;SDS011;43322;52.230;5.702;2022-07-25T09:49:14;3.88;;;1.17;;
23718;SDS011;43322;52.230;5.702;2022-07-25T09:51:41;1.55;;;1.30;;
23718;SDS011;43322;52.230;5.702;2022-07-25T09:54:10;1.30;;;1.20;;
23718;SDS011;43322;52.230;5.702;2022-07-25T09:56:37;1.20;;;1.10;;
23718;SDS011;43322;52.230;5.702;2022-07-25T09:59:04;2.03;;;1.38;;
23718;SDS011;43322;52.230;5.702;2022-07-25T10:01:33;1.45;;;1.35;;
23718;SDS011;43322;52.230;5.702;2022-07-25T10:04:05;1.20;;;1.20;;
23718;SDS011;43322;52.230;5.702;2022-07-25T10:06:40;4.05;;;1.88;;
23718;SDS011;43322;52.230;5.702;2022-07-25T10:09:15;3.13;;;1.23;;
23718;SDS011;43322;52.230;5.702;2022-07-25T10:14:31;4.28;;;1.70;;
23718;SDS011;43322;52.230;5.702;2022-07-25T10:16:58;1.25;;;1.15;;
23718;SDS011;43322;52.230;5.702;2022-07-25T10:19:34;3.88;;;1.20;;
23718;SDS011;43322;52.230;5.702;2022-07-25T10:22:06;1.40;;;1.30;;
23718;SDS011;43322;52.230;5.702;2022-07-25T10:24:35;2.38;;;1.40;;
23718;SDS011;43322;52.230;5.702;2022-07-25T10:27:07;2.15;;;1.30;;
23718;SDS011;43322;52.230;5.702;2022-07-25T10:29:35;3.63;;;1.40;;
23718;SDS011;43322;52.230;5.702;2022-07-25T10:32:04;3.53;;;1.75;;
23718;SDS011;43322;52.230;5.702;2022-07-25T10:34:32;2.63;;;1.55;;
23718;SDS011;43322;52.230;5.702;2022-07-25T10:37:08;1.40;;;1.30;;
23718;SDS011;43322;52.230;5.702;2022-07-25T10:39:38;4.80;;;1.30;;
23718;SDS011;43322;52.230;5.702;2022-07-25T10:42:06;2.63;;;1.48;;
23718;SDS011;43322;52.230;5.702;2022-07-25T10:44:40;3.15;;;1.58;;
23718;SDS011;43322;52.230;5.702;2022-07-25T10:47:09;1.45;;;1.30;;
23718;SDS011;43322;52.230;5.702;2022-07-25T10:49:38;1.23;;;1.23;;
23718;SDS011;43322;52.230;5.702;2022-07-25T10:52:06;1.98;;;1.50;;
23718;SDS011;43322;52.230;5.702;2022-07-25T10:54:40;1.58;;;1.40;;
23718;SDS011;43322;52.230;5.702;2022-07-25T10:57:17;3.55;;;1.85;;
23718;SDS011;43322;52.230;5.702;2022-07-25T10:59:44;3.15;;;1.50;;
23718;SDS011;43322;52.230;5.702;2022-07-25T11:02:11;1.63;;;1.52;;
23718;SDS011;43322;52.230;5.702;2022-07-25T11:04:40;2.03;;;1.40;;
23718;SDS011;43322;52.230;5.702;2022-07-25T11:07:08;3.50;;;1.33;;
23718;SDS011;43322;52.230;5.702;2022-07-25T11:09:35;1.60;;;1.50;;
23718;SDS011;43322;52.230;5.702;2022-07-25T11:12:04;2.75;;;1.50;;
23718;SDS011;43322;52.230;5.702;2022-07-25T11:14:33;1.60;;;1.48;;
23718;SDS011;43322;52.230;5.702;2022-07-25T11:17:14;1.63;;;1.52;;
23718;SDS011;43322;52.230;5.702;2022-07-25T11:19:51;2.65;;;1.60;;
23718;SDS011;43322;52.230;5.702;2022-07-25T11:22:19;3.63;;;2.00;;
23718;SDS011;43322;52.230;5.702;2022-07-25T11:24:46;2.03;;;1.83;;
23718;SDS011;43322;52.230;5.702;2022-07-25T11:27:21;3.25;;;1.80;;
23718;SDS011;43322;52.230;5.702;2022-07-25T11:29:50;2.88;;;2.15;;
23718;SDS011;43322;52.230;5.702;2022-07-25T11:32:17;1.95;;;1.85;;
23718;SDS011;43322;52.230;5.702;2022-07-25T11:34:45;3.05;;;1.80;;
23718;SDS011;43322;52.230;5.702;2022-07-25T11:37:14;5.47;;;1.90;;
23718;SDS011;43322;52.230;5.702;2022-07-25T11:39:43;2.65;;;1.75;;
23718;SDS011;43322;52.230;5.702;2022-07-25T11:42:12;2.78;;;1.70;;
23718;SDS011;43322;52.230;5.702;2022-07-25T11:44:42;3.65;;;1.58;;
23718;SDS011;43322;52.230;5.702;2022-07-25T11:47:20;4.07;;;1.58;;
23718;SDS011;43322;52.230;5.702;2022-07-25T11:49:49;2.97;;;1.60;;
23718;SDS011;43322;52.230;5.702;2022-07-25T11:52:18;4.05;;;1.70;;
23718;SDS011;43322;52.230;5.702;2022-07-25T11:54:53;3.85;;;1.95;;
23718;SDS011;43322;52.230;5.702;2022-07-25T11:57:21;3.45;;;2.00;;
23718;SDS011;43322;52.230;5.702;2022-07-25T11:59:51;2.20;;;2.10;;
23718;SDS011;43322;52.230;5.702;2022-07-25T12:02:23;2.20;;;2.00;;
23718;SDS011;43322;52.230;5.702;2022-07-25T12:04:54;4.22;;;2.70;;
23718;SDS011;43322;52.230;5.702;2022-07-25T12:07:33;4.60;;;2.80;;
23718;SDS011;43322;52.230;5.702;2022-07-25T12:10:09;3.45;;;2.40;;
23718;SDS011;43322;52.230;5.702;2022-07-25T12:12:41;4.00;;;2.65;;
23718;SDS011;43322;52.230;5.702;2022-07-25T12:15:15;4.78;;;2.47;;
23718;SDS011;43322;52.230;5.702;2022-07-25T12:17:44;2.30;;;1.85;;
23718;SDS011;43322;52.230;5.702;2022-07-25T12:20:12;2.42;;;2.10;;
23718;SDS011;43322;52.230;5.702;2022-07-25T12:22:41;3.83;;;2.40;;
23718;SDS011;43322;52.230;5.702;2022-07-25T12:25:08;4.88;;;2.45;;
23718;SDS011;43322;52.230;5.702;2022-07-25T12:27:36;4.65;;;2.28;;
23718;SDS011;43322;52.230;5.702;2022-07-25T12:30:03;8.05;;;2.65;;
23718;SDS011;43322;52.230;5.702;2022-07-25T12:32:32;4.78;;;2.58;;
23718;SDS011;43322;52.230;5.702;2022-07-25T12:35:00;4.68;;;2.42;;
23718;SDS011;43322;52.230;5.702;2022-07-25T12:37:28;6.75;;;2.45;;
23718;SDS011;43322;52.230;5.702;2022-07-25T12:39:55;3.88;;;2.70;;
23718;SDS011;43322;52.230;5.702;2022-07-25T12:42:22;5.38;;;2.50;;
23718;SDS011;43322;52.230;5.702;2022-07-25T12:44:49;4.30;;;2.17;;
23718;SDS011;43322;52.230;5.702;2022-07-25T12:47:16;4.53;;;2.10;;
23718;SDS011;43322;52.230;5.702;2022-07-25T12:49:44;10.82;;;2.67;;
23718;SDS011;43322;52.230;5.702;2022-07-25T12:52:11;4.82;;;2.10;;
23718;SDS011;43322;52.230;5.702;2022-07-25T12:54:38;2.92;;;2.30;;
23718;SDS011;43322;52.230;5.702;2022-07-25T12:57:05;4.68;;;2.13;;
23718;SDS011;43322;52.230;5.702;2022-07-25T12:59:32;6.47;;;2.30;;
23718;SDS011;43322;52.230;5.702;2022-07-25T13:01:59;6.75;;;1.95;;
23718;SDS011;43322;52.230;5.702;2022-07-25T13:04:26;3.80;;;2.03;;
23718;SDS011;43322;52.230;5.702;2022-07-25T13:06:55;3.40;;;1.95;;
23718;SDS011;43322;52.230;5.702;2022-07-25T13:09:22;7.22;;;2.03;;
23718;SDS011;43322;52.230;5.702;2022-07-25T13:11:49;5.15;;;2.30;;
23718;SDS011;43322;52.230;5.702;2022-07-25T13:14:16;6.47;;;2.65;;
23718;SDS011;43322;52.230;5.702;2022-07-25T13:16:43;3.65;;;2.33;;
23718;SDS011;43322;52.230;5.702;2022-07-25T13:19:11;5.78;;;2.67;;
23718;SDS011;43322;52.230;5.702;2022-07-25T13:21:39;2.85;;;2.13;;
23718;SDS011;43322;52.230;5.702;2022-07-25T13:24:08;6.22;;;2.38;;
23718;SDS011;43322;52.230;5.702;2022-07-25T13:26:36;6.30;;;2.78;;
23718;SDS011;43322;52.230;5.702;2022-07-25T13:29:03;2.60;;;2.40;;
23718;SDS011;43322;52.230;5.702;2022-07-25T13:31:32;3.38;;;2.00;;
23718;SDS011;43322;52.230;5.702;2022-07-25T13:33:59;2.95;;;2.13;;
23718;SDS011;43322;52.230;5.702;2022-07-25T13:36:26;6.80;;;2.67;;
23718;SDS011;43322;52.230;5.702;2022-07-25T13:38:53;6.35;;;2.80;;
23718;SDS011;43322;52.230;5.702;2022-07-25T13:41:21;6.70;;;2.28;;
23718;SDS011;43322;52.230;5.702;2022-07-25T13:43:48;4.65;;;1.85;;
23718;SDS011;43322;52.230;5.702;2022-07-25T13:46:15;5.88;;;2.17;;
23718;SDS011;43322;52.230;5.702;2022-07-25T13:48:42;2.50;;;1.67;;
23718;SDS011;43322;52.230;5.702;2022-07-25T13:51:09;2.88;;;1.38;;
23718;SDS011;43322;52.230;5.702;2022-07-25T13:53:36;2.05;;;1.60;;
23718;SDS011;43322;52.230;5.702;2022-07-25T13:56:03;2.08;;;1.45;;
23718;SDS011;43322;52.230;5.702;2022-07-25T13:58:32;2.33;;;1.70;;
23718;SDS011;43322;52.230;5.702;2022-07-25T14:00:59;2.97;;;1.80;;
23718;SDS011;43322;52.230;5.702;2022-07-25T14:03:26;4.57;;;1.95;;
23718;SDS011;43322;52.230;5.702;2022-07-25T14:05:52;4.80;;;1.83;;
23718;SDS011;43322;52.230;5.702;2022-07-25T14:08:19;3.22;;;2.22;;
23718;SDS011;43322;52.230;5.702;2022-07-25T14:10:46;3.15;;;1.70;;
23718;SDS011;43322;52.230;5.702;2022-07-25T14:13:13;3.83;;;1.95;;
23718;SDS011;43322;52.230;5.702;2022-07-25T14:15:41;2.28;;;1.77;;
23718;SDS011;43322;52.230;5.702;2022-07-25T14:18:08;3.15;;;1.98;;
23718;SDS011;43322;52.230;5.702;2022-07-25T14:20:35;4.13;;;1.80;;
23718;SDS011;43322;52.230;5.702;2022-07-25T14:23:02;2.80;;;1.90;;
23718;SDS011;43322;52.230;5.702;2022-07-25T14:25:29;5.55;;;1.77;;
23718;SDS011;43322;52.230;5.702;2022-07-25T14:27:57;3.15;;;1.95;;
23718;SDS011;43322;52.230;5.702;2022-07-25T14:30:24;3.42;;;1.67;;
23718;SDS011;43322;52.230;5.702;2022-07-25T14:32:53;4.75;;;1.63;;
23718;SDS011;43322;52.230;5.702;2022-07-25T14:35:20;4.13;;;1.42;;
23718;SDS011;43322;52.230;5.702;2022-07-25T14:37:47;2.53;;;1.70;;
23718;SDS011;43322;52.230;5.702;2022-07-25T14:40:14;3.47;;;1.48;;
23718;SDS011;43322;52.230;5.702;2022-07-25T14:42:41;3.10;;;1.58;;
23718;SDS011;43322;52.230;5.702;2022-07-25T14:45:09;2.70;;;1.40;;
23718;SDS011;43322;52.230;5.702;2022-07-25T14:47:36;6.22;;;1.58;;
23718;SDS011;43322;52.230;5.702;2022-07-25T14:50:06;3.80;;;1.50;;
23718;SDS011;43322;52.230;5.702;2022-07-25T14:52:33;2.65;;;1.63;;
23718;SDS011;43322;52.230;5.702;2022-07-25T14:55:00;2.78;;;1.38;;